Latest Weather Observations for Hogan Island

IDT60801

Issued at 8:02 pm EST Friday 28 April 2017 (issued every 30 minutes, with the page automatically refreshed every 10 minutes)

About weather observations | Map of weather stations | Latest weather observations for TAS | Other Formats
Station Details ID: 200838 Name: HOGAN ISLAND Lat: -39.22 Lon: 146.98 Height: 116.0 m
Data from the previous 72 hours. | See also: Recent months at Hogan Island
Date/Time
EST
Temp
°C
App
Temp
°C
Dew
Point
°C
Rel
Hum
%
Delta-T
°C
Wind Press
QNH
hPa
Press
MSL
hPa
Rain since
9am
mm
Dir  Spd
km/h
Gust
km/h
Spd
kts
Gust
kts
28/08:00pm 14.4 - - - - W 67 76 36 41 1018.1 - 0.2
28/07:36pm 14.5 - - - - W 65 83 35 45 1018.1 - 0.2
28/07:30pm 14.8 - - - - W 69 80 37 43 1018.0 - 0.2
28/07:00pm 14.7 - - - - W 63 74 34 40 1018.0 - 0.2
28/06:30pm 14.8 - - - - W 63 74 34 40 1017.9 - 0.2
28/06:00pm 15.3 - - - - W 63 70 34 38 1017.8 1017.8 0.2
28/05:30pm 15.1 - - - - W 65 76 35 41 1017.5 - 0.2
28/05:00pm 15.5 - - - - W 57 69 31 37 1017.6 - 0.2
28/04:30pm 15.9 - - - - W 69 80 37 43 1017.5 - 0.2
28/04:00pm 15.6 - - - - W 63 78 34 42 1017.6 - 0.2
28/03:30pm 15.9 - - - - W 65 74 35 40 1017.6 - 0.2
28/03:00pm 16.3 - - - - W 63 72 34 39 1017.6 1017.6 0.2
28/02:30pm 16.7 - - - - W 59 70 32 38 1017.8 - 0.2
28/02:00pm 15.6 - - - - W 61 69 33 37 1017.9 - 0.2
28/01:30pm 16.2 - - - - W 63 74 34 40 1017.7 - 0.2
28/01:00pm 15.5 - - - - W 63 72 34 39 1018.0 - 0.2
28/12:30pm 16.2 - - - - W 65 74 35 40 1018.3 - 0.2
28/12:00pm 15.1 - - - - W 57 70 31 38 1018.9 1018.9 0.2
28/11:30am 16.4 - - - - W 52 61 28 33 1019.0 - 0.2
28/11:00am 15.9 - - - - W 57 67 31 36 1019.4 - 0.2
28/10:30am 15.2 - - - - W 54 61 29 33 1019.9 - 0.2
28/10:00am 15.1 - - - - W 50 59 27 32 1019.9 - 0.0
28/09:30am 15.2 - - - - W 52 57 28 31 1019.9 - 0.0
28/09:00am 15.4 - - - - W 48 56 26 30 1019.9 1019.8 0.6
28/08:30am 15.4 - - - - W 52 65 28 35 1019.6 - 0.6
28/08:00am 14.9 - - - - W 48 59 26 32 1019.7 - 0.6
28/07:30am 14.5 - - - - W 52 57 28 31 1019.2 - 0.6
28/07:00am 14.5 - - - - W 54 63 29 34 1018.8 - 0.6
28/06:30am 14.3 - - - - W 54 63 29 34 1018.9 - 0.6
28/06:00am 14.1 - - - - W 54 65 29 35 1018.9 1018.9 0.6
28/05:30am 14.3 - - - - W 52 59 28 32 1018.6 - 0.6
28/05:00am 14.3 - - - - W 48 57 26 31 1018.8 - 0.6
28/04:30am 13.2 - - - - WNW 43 52 23 28 1018.6 - 0.6
28/04:00am 13.0 - - - - WNW 46 52 25 28 1018.4 - 0.6
28/03:30am 13.0 - - - - WNW 46 56 25 30 1018.5 - 0.6
28/03:00am 12.7 - - - - WNW 46 54 25 29 1018.6 1018.6 0.6
28/02:30am 12.9 - - - - WNW 48 56 26 30 1018.7 - 0.6
28/02:00am 13.0 - - - - WNW 46 56 25 30 1019.2 - 0.6
28/01:30am 13.2 - - - - W 54 65 29 35 1018.9 - 0.6
28/01:00am 13.3 - - - - W 46 59 25 32 1019.2 - 0.6
28/12:30am 13.7 - - - - W 46 59 25 32 1019.4 - 0.6
28/12:03am 13.1 - - - - W 44 65 24 35 1019.6 - 0.6
28/12:00am 13.0 - - - - WNW 46 65 25 35 1019.5 1019.5 0.6
 
Date/Time
EST
Temp
°C
App
Temp
°C
Dew
Point
°C
Rel
Hum
%
Delta-T
°C
Wind Press
QNH
hPa
Press
MSL
hPa
Rain since
9am
mm
Dir  Spd
km/h
Gust
km/h
Spd
kts
Gust
kts
27/11:56pm 13.0 - - - - WNW 44 65 24 35 1019.4 - 0.6
27/11:30pm 12.4 - - - - W 39 48 21 26 1019.9 - 0.6
27/11:00pm 12.7 - - - - W 44 54 24 29 1019.9 - 0.6
27/10:30pm 12.6 - 13.6 - - W 43 48 23 26 1020.1 - 0.6
27/10:00pm 12.4 - 13.4 - - W 41 50 22 27 1020.0 - 0.6
27/09:30pm 12.3 - - - - W 43 48 23 26 1020.2 - 0.6
27/09:00pm 12.1 - - - - W 39 46 21 25 1020.3 1020.2 0.6
27/08:30pm 11.8 - - - - W 43 48 23 26 1020.2 - 0.6
27/08:00pm 10.8 - 11.8 - - W 28 44 15 24 1020.7 - 0.6
27/07:30pm 12.0 - 12.7 - - WSW 35 43 19 23 1020.6 - 0.0
27/07:00pm 12.3 - 12.8 - - WSW 41 48 22 26 1020.4 - 0.0
27/06:30pm 12.2 - 12.6 - - WSW 41 50 22 27 1020.3 - 0.0
27/06:00pm 12.1 - 12.4 - - WSW 43 52 23 28 1019.7 1019.7 0.0
27/05:30pm 12.0 - 12.3 - - WSW 43 52 23 28 1019.5 - 0.0
27/05:00pm 12.2 - 12.5 - - WSW 46 56 25 30 1019.7 - 0.0
27/04:30pm 12.3 - 12.6 - - WSW 46 57 25 31 1019.6 - 0.0
27/04:00pm 12.0 - 12.3 - - WSW 44 52 24 28 1019.5 - 0.0
27/03:30pm 12.2 - 12.5 - - WSW 43 50 23 27 1019.7 - 0.0
27/03:00pm 12.3 - 12.6 - - WSW 44 57 24 31 1019.6 1019.6 0.0
27/02:30pm 13.7 - 14.0 - - WSW 35 44 19 24 1019.9 - 0.0
27/02:08pm 11.4 - 11.7 - - WSW 43 65 23 35 1019.5 - 0.0
27/02:00pm 12.3 - 12.6 - - SW 39 46 21 25 1019.7 - 0.0
27/01:30pm 12.4 - 12.7 - - SW 44 54 24 29 1020.0 - 0.0
27/01:00pm 12.6 - 12.8 - - SW 41 52 22 28 1020.0 - 0.0
27/12:30pm 12.3 - 12.6 - - SW 39 46 21 25 1020.0 - 0.0
27/12:00pm 13.6 - 13.8 - - SW 41 50 22 27 1020.3 1020.2 0.0
27/11:30am 13.0 - 13.2 - - SW 39 50 21 27 1020.4 - 0.0
27/11:00am 12.4 - 12.6 - - SW 39 50 21 27 1020.3 - 0.0
27/10:30am 12.6 - 12.9 - - SW 39 46 21 25 1020.3 - 0.0
27/10:03am 11.0 - 11.4 - - SW 39 46 21 25 1020.4 - 0.0
27/10:00am 10.8 - 11.4 - - S 22 33 12 18 1020.5 - 0.0
27/09:53am 10.7 - 11.3 - - S 24 35 13 19 1020.5 - 0.0
27/09:30am 11.2 - 11.6 - - SW 46 54 25 29 1020.3 - 0.0
27/09:26am 13.1 - 13.4 - - SW 28 46 15 25 1020.3 - 0.0
27/09:00am 11.3 - 11.7 - - SW 30 41 16 22 1020.2 1020.1 1.6
27/08:36am 11.8 - 12.2 - - SW 28 46 15 25 1019.7 - 1.6
27/08:30am 12.0 - 12.4 - - SW 20 30 11 16 1020.0 - 1.6
27/08:00am 10.4 - 10.8 - - SSW 28 39 15 21 1019.6 - 1.6
27/07:30am 10.5 - 10.9 - - SSW 19 35 10 19 1019.4 - 1.4
27/07:00am 10.3 - 10.6 - - SSW 24 32 13 17 1019.0 - 1.4
27/06:30am 10.4 - 10.7 - - SSW 28 43 15 23 1018.8 - 1.4
27/06:00am 10.2 - 10.5 - - SSW 28 35 15 19 1018.5 1018.5 1.4
27/05:30am 10.2 - 10.5 - - SSW 28 39 15 21 1018.1 - 1.4
27/05:00am 9.9 - 10.3 - - S 32 43 17 23 1017.7 - 1.4
27/04:30am 10.2 - 10.6 - - S 32 39 17 21 1017.4 - 1.4
27/04:00am 10.4 - 10.7 - - SSW 35 46 19 25 1017.1 - 1.4
27/03:30am 9.9 - 10.3 - - S 33 46 18 25 1016.9 - 1.4
27/03:00am 10.0 - 10.4 - - S 37 46 20 25 1017.0 1016.9 1.4
27/02:30am 10.3 - 10.7 - - S 37 46 20 25 1017.2 - 1.4
27/02:00am 10.5 - 10.9 - - SSW 39 52 21 28 1017.0 - 1.4
27/01:53am 10.4 - 10.8 - - SSW 39 52 21 28 1016.9 - 1.4
27/01:30am 10.3 - 10.9 - - S 41 50 22 27 1016.7 - 1.4
27/01:00am 10.1 - 10.7 - - S 41 52 22 28 1016.4 - 1.4
27/12:30am 10.1 - 10.8 - - S 41 52 22 28 1016.1 - 1.4
27/12:24am 10.1 - 11.0 - - S 41 48 22 26 1016.1 - 1.4
27/12:00am 9.2 - 10.1 - - SW 24 65 13 35 1015.9 1015.8 1.4
 
Date/Time
EST
Temp
°C
App
Temp
°C
Dew
Point
°C
Rel
Hum
%
Delta-T
°C
Wind Press
QNH
hPa
Press
MSL
hPa
Rain since
9am
mm
Dir  Spd
km/h
Gust
km/h
Spd
kts
Gust
kts
26/11:55pm 8.9 - 9.8 - - S 41 65 22 35 1016.0 - 1.2
26/11:48pm 10.4 - 11.1 - - SW 56 65 30 35 1015.5 - 1.2
26/11:43pm 10.9 - 11.5 - - SSW 30 48 16 26 1015.5 - 1.0
26/11:30pm 10.2 - 10.8 - - SSW 24 32 13 17 1015.5 - 1.0
26/11:00pm 9.5 - 10.2 - - SSW 24 30 13 16 1015.4 - 1.0
26/10:30pm 9.2 - 9.9 - - S 30 39 16 21 1015.3 - 1.0
26/10:00pm 8.7 - 9.6 - - S 35 46 19 25 1015.1 - 1.0
26/09:43pm 8.9 - 9.6 - - SSW 39 57 21 31 1015.1 - 0.8
26/09:30pm 9.4 - 9.8 - - S 44 54 24 29 1014.7 - 0.4
26/09:27pm 10.8 - 11.2 - - S 41 52 22 28 1014.6 - 0.2
26/09:00pm 11.5 - 11.8 - - SW 37 48 20 26 1014.3 1014.2 0.0
26/08:30pm 10.9 - 11.3 - - SW 43 52 23 28 1014.0 - 0.0
26/08:03pm 9.6 - 10.0 - - WSW 44 65 24 35 1013.8 - 0.0
26/08:00pm 9.6 - 10.0 - - WSW 48 65 26 35 1013.8 - 0.0
26/07:30pm 10.9 - 11.2 - - SW 54 65 29 35 1013.3 - 0.0
26/07:26pm 11.1 - 11.4 - - SW 57 65 31 35 1013.2 - 0.0
26/07:07pm 11.1 - 11.4 - - SW 33 52 18 28 1013.2 - 0.0
26/07:00pm 10.6 - 10.7 - - SSW 32 59 17 32 1013.2 - 0.0
26/06:59pm 10.6 - 10.7 - - SSW 32 59 17 32 1013.2 - 0.0
26/06:33pm 10.7 - 10.8 - - SW 52 70 28 38 1012.6 - 0.0
26/06:30pm 10.9 - 11.0 - - SW 56 70 30 38 1012.4 - 0.0
26/06:00pm 11.0 - 11.3 - - WSW 56 67 30 36 1012.1 1012.0 0.0
26/05:32pm 11.2 2.1 11.2 100 0.0 WSW 50 69 27 37 1011.7 - 0.0
26/05:30pm 11.3 2.2 9.7 90 0.8 SW 48 59 26 32 1011.7 - 0.0
26/05:00pm 11.1 0.8 8.3 83 1.4 WSW 52 65 28 35 1011.2 - 0.0
26/04:30pm 11.4 0.8 10.1 92 0.7 WSW 56 69 30 37 1010.9 - 0.0
26/04:00pm 11.7 0.7 9.1 84 1.3 WSW 57 65 31 35 1010.5 - 0.0
26/03:30pm 12.3 - 12.6 - - SW 56 67 30 36 1010.1 - 0.0
26/03:06pm 12.4 - 12.7 - - SW 56 74 30 40 1009.9 - 0.0
26/03:00pm 12.5 - 12.7 - - SW 57 74 31 40 1009.6 1009.5 0.0
26/02:30pm 12.7 - 13.0 - - SW 59 72 32 39 1009.2 - 0.0
26/02:00pm 12.7 - 13.0 - - SW 63 76 34 41 1008.9 - 0.0
26/01:30pm 12.8 - 13.1 - - SW 67 78 36 42 1008.5 - 0.0
26/01:00pm 12.7 - 13.2 - - SW 67 80 36 43 1007.9 - 0.0
26/12:30pm 12.9 - 13.4 - - SW 69 82 37 44 1007.6 - 0.0
26/12:00pm 12.2 - 12.6 - - SW 72 83 39 45 1007.3 1007.2 0.0
26/11:30am 12.8 - 13.4 - - SW 74 87 40 47 1006.7 - 0.0
26/11:00am 12.8 - 13.4 - - SW 74 89 40 48 1006.3 - 0.0
26/10:30am 13.1 - 13.8 - - SW 70 82 38 44 1005.8 - 0.0
26/10:00am 12.7 - 13.6 - - SW 63 76 34 41 1005.4 - 0.0
26/09:30am 12.7 - 13.6 - - SW 65 74 35 40 1005.1 - 0.0
26/09:00am 12.6 - 13.6 - - SW 61 76 33 41 1004.5 1004.4 4.8
26/08:30am 12.8 - - - - SW 61 74 33 40 1004.0 - 4.8
26/08:00am 12.5 - - - - SW 65 78 35 42 1003.2 - 4.8
26/07:30am 12.4 - - - - SW 61 70 33 38 1002.7 - 4.8
26/07:00am 12.3 - - - - SW 61 76 33 41 1002.1 - 4.8
26/06:30am 11.7 - - - - SW 61 74 33 40 1001.4 - 4.6
26/06:00am 11.8 - - - - SW 54 72 29 39 1001.0 1000.9 4.2
26/05:57am 11.7 - - - - SW 48 67 26 36 1001.1 - 4.0
26/05:37am 11.5 - - - - WSW 56 76 30 41 1000.7 - 3.2
26/05:30am 12.0 - - - - W 69 80 37 43 1000.1 - 3.0
26/05:00am 13.8 - - - - WNW 70 80 38 43 999.5 - 3.0
26/04:30am 13.8 - - - - WNW 57 69 31 37 999.6 - 3.0
26/04:00am 13.8 - - - - WNW 54 69 29 37 999.8 - 3.0
26/03:30am 14.0 - - - - WNW 44 57 24 31 1000.3 - 3.0
26/03:00am 14.0 - - - - WNW 54 61 29 33 1000.3 1000.2 3.0
26/02:30am 14.1 - - - - WNW 41 48 22 26 1000.9 - 3.0
26/02:00am 14.1 - - - - W 44 56 24 30 1001.1 - 3.0
26/01:30am 14.3 - - - - WNW 50 57 27 31 1001.1 - 3.0
26/01:00am 14.0 - - - - WNW 37 44 20 24 1001.6 - 3.0
26/12:30am 14.1 - - - - NW 33 41 18 22 1002.0 - 2.8
26/12:00am 14.2 - - - - NW 37 44 20 24 1002.2 1002.0 2.8
 
Date/Time
EST
Temp
°C
App
Temp
°C
Dew
Point
°C
Rel
Hum
%
Delta-T
°C
Wind Press
QNH
hPa
Press
MSL
hPa
Rain since
9am
mm
Dir  Spd
km/h
Gust
km/h
Spd
kts
Gust
kts
25/11:30pm 14.1 - - - - NW 24 35 13 19 1002.5 - 2.8
25/11:00pm 13.9 - - - - NW 26 33 14 18 1002.7 - 2.8
25/10:30pm 14.1 - - - - NW 26 33 14 18 1003.0 - 2.8
25/10:00pm 14.3 - - - - WNW 28 35 15 19 1003.5 - 2.8
25/09:30pm 14.5 - - - - WNW 33 37 18 20 1003.8 - 2.8
25/09:00pm 14.7 - - - - WNW 33 39 18 21 1004.2 1004.1 2.8
25/08:30pm 14.7 - - - - WNW 39 44 21 24 1004.2 - 2.8

Other Formats:

Comma delimited format used in spreadsheet applications
http://www.bom.gov.au/fwo/IDT60801/IDT60801.94949.axf

JavaScript Object Notation format (JSON) in row-major order
http://www.bom.gov.au/fwo/IDT60801/IDT60801.94949.json